createdAt,value
2023-02-06T00:01:41.071Z,-3.03
2023-02-06T00:04:09.145Z,-3.04
2023-02-06T00:06:36.840Z,-2.86
2023-02-06T00:09:05.876Z,-3.11
2023-02-06T00:11:34.165Z,-3.00
2023-02-06T00:14:01.693Z,-2.90
2023-02-06T00:16:33.538Z,-3.12
2023-02-06T00:19:02.035Z,-2.95
2023-02-06T00:21:30.381Z,-3.15
2023-02-06T00:23:59.839Z,-3.00
2023-02-06T00:26:28.011Z,-3.35
2023-02-06T00:28:55.664Z,-3.09
2023-02-06T00:31:24.967Z,-3.04
2023-02-06T00:33:53.010Z,-2.71
2023-02-06T00:36:20.891Z,-2.96
2023-02-06T00:38:48.480Z,-3.01
2023-02-06T00:41:16.534Z,-3.30
2023-02-06T00:43:44.510Z,-3.28
2023-02-06T00:46:12.264Z,-3.07
2023-02-06T00:48:40.327Z,-3.11
2023-02-06T00:51:07.999Z,-3.66
2023-02-06T00:53:38.086Z,-3.30
2023-02-06T00:56:06.289Z,-3.38
2023-02-06T00:58:34.542Z,-3.46
2023-02-06T01:01:02.260Z,-3.54
2023-02-06T01:03:30.363Z,-3.52
2023-02-06T01:05:58.059Z,-3.69
2023-02-06T01:08:25.925Z,-3.36
2023-02-06T01:10:54.074Z,-3.22
2023-02-06T01:13:22.004Z,-3.22
2023-02-06T01:15:51.213Z,-2.84
2023-02-06T01:18:19.326Z,-3.41
2023-02-06T01:20:46.914Z,-3.18
2023-02-06T01:23:14.559Z,-3.05
2023-02-06T01:25:42.565Z,-2.95
2023-02-06T01:28:10.194Z,-2.78
2023-02-06T01:30:39.151Z,-2.98
2023-02-06T01:33:07.108Z,-3.12
2023-02-06T01:35:35.386Z,-3.48
2023-02-06T01:38:03.074Z,-3.68
2023-02-06T01:40:31.093Z,-3.70
2023-02-06T01:42:58.674Z,-3.20
2023-02-06T01:45:26.181Z,-3.30
2023-02-06T01:48:00.898Z,-3.35
2023-02-06T01:50:31.107Z,-3.48
2023-02-06T01:52:59.498Z,-3.32
2023-02-06T01:55:27.236Z,-3.34
2023-02-06T01:57:54.972Z,-3.47
2023-02-06T02:00:23.258Z,-3.55
2023-02-06T02:02:51.251Z,-3.74
2023-02-06T02:05:19.747Z,-3.28
2023-02-06T02:07:55.010Z,-3.42
2023-02-06T02:10:22.987Z,-3.33
2023-02-06T02:12:50.633Z,-3.55
2023-02-06T02:15:18.363Z,-3.46
2023-02-06T02:18:26.464Z,-3.53
2023-02-06T02:21:28.414Z,-3.57
2023-02-06T02:24:10.260Z,-3.67
2023-02-06T02:27:15.259Z,-3.29
2023-02-06T02:30:18.895Z,-3.72
2023-02-06T02:32:52.959Z,-3.57
2023-02-06T02:36:11.301Z,-3.72
2023-02-06T02:39:20.056Z,-3.38
2023-02-06T02:42:04.187Z,-3.46
2023-02-06T02:44:46.950Z,-3.23
2023-02-06T02:47:18.145Z,-3.01
2023-02-06T02:49:48.608Z,-2.95
2023-02-06T02:52:16.531Z,-2.79
2023-02-06T02:54:44.219Z,-3.52
2023-02-06T02:57:22.759Z,-3.31
2023-02-06T02:59:51.985Z,-2.89
2023-02-06T03:02:25.623Z,-2.85
2023-02-06T03:04:58.617Z,-2.81
2023-02-06T03:07:45.222Z,-2.81
2023-02-06T03:10:22.063Z,-2.98
2023-02-06T03:13:03.584Z,-3.09
2023-02-06T03:15:41.718Z,-3.01
2023-02-06T03:18:21.409Z,-3.73
2023-02-06T03:20:50.871Z,-3.32
2023-02-06T03:23:24.429Z,-3.56
2023-02-06T03:25:55.985Z,-3.39
2023-02-06T03:28:28.029Z,-3.54
2023-02-06T03:31:00.252Z,-3.53
2023-02-06T03:33:34.258Z,-3.34
2023-02-06T03:36:05.450Z,-3.47
2023-02-06T03:38:33.332Z,-3.39
2023-02-06T03:41:02.120Z,-3.63
2023-02-06T03:43:30.742Z,-3.56
2023-02-06T03:46:03.213Z,-3.34
2023-02-06T03:48:39.753Z,-3.12
2023-02-06T03:51:40.849Z,-3.27
2023-02-06T03:54:11.760Z,-2.96
2023-02-06T03:57:02.247Z,-2.73
2023-02-06T03:59:31.271Z,-3.00
2023-02-06T04:02:02.841Z,-3.32
2023-02-06T04:04:41.999Z,-3.16
2023-02-06T04:07:30.992Z,-3.15
2023-02-06T04:09:59.078Z,-3.09
2023-02-06T04:12:27.656Z,-2.78
2023-02-06T04:14:55.776Z,-3.52
2023-02-06T04:17:40.690Z,-3.05
2023-02-06T04:20:11.597Z,-3.29
2023-02-06T04:22:41.337Z,-3.36
2023-02-06T04:25:08.935Z,-3.21
2023-02-06T04:27:37.317Z,-2.76
2023-02-06T04:30:06.388Z,-2.73
2023-02-06T04:32:34.330Z,-2.80
2023-02-06T04:35:02.096Z,-3.41
2023-02-06T04:37:30.905Z,-3.07
2023-02-06T04:39:59.568Z,-3.10
2023-02-06T04:42:27.502Z,-3.55
2023-02-06T04:44:55.460Z,-3.56
2023-02-06T04:47:23.004Z,-3.47
2023-02-06T04:49:50.715Z,-3.15
2023-02-06T04:52:18.623Z,-3.17
2023-02-06T04:54:46.221Z,-3.34
2023-02-06T04:57:13.805Z,-3.51
2023-02-06T04:59:41.803Z,-3.57
2023-02-06T05:02:09.419Z,-3.32
2023-02-06T05:04:38.995Z,-3.48
2023-02-06T05:07:06.983Z,-3.38
2023-02-06T05:09:34.686Z,-3.76
2023-02-06T05:12:03.141Z,-3.37
2023-02-06T05:14:31.350Z,-3.20
2023-02-06T05:16:58.956Z,-3.06
2023-02-06T05:19:26.588Z,-2.77
2023-02-06T05:21:54.858Z,-3.08
2023-02-06T05:24:22.518Z,-2.79
2023-02-06T05:26:50.196Z,-2.51
2023-02-06T05:29:18.053Z,-2.92
2023-02-06T05:31:45.988Z,-2.52
2023-02-06T05:34:13.635Z,-2.77
2023-02-06T05:36:41.570Z,-2.37
2023-02-06T05:39:09.359Z,-2.63
2023-02-06T05:41:36.989Z,-2.58
2023-02-06T05:44:05.101Z,-2.52
2023-02-06T05:46:33.055Z,-2.59
2023-02-06T05:49:01.168Z,-2.45
2023-02-06T05:51:29.003Z,-2.73
2023-02-06T05:53:56.629Z,-2.68
2023-02-06T05:56:24.196Z,-3.12
2023-02-06T05:58:52.150Z,-3.37
2023-02-06T06:01:20.290Z,-3.03
2023-02-06T06:03:48.253Z,-2.71
2023-02-06T06:06:16.068Z,-2.58
2023-02-06T06:08:43.636Z,-2.61
2023-02-06T06:11:11.675Z,-2.34
2023-02-06T06:13:39.283Z,-2.23
2023-02-06T06:16:07.079Z,-2.31
2023-02-06T06:18:35.177Z,-2.42
2023-02-06T06:21:02.753Z,-1.76
2023-02-06T06:23:30.568Z,-1.65
2023-02-06T06:25:58.487Z,-1.33
2023-02-06T06:28:26.083Z,-1.17
2023-02-06T06:31:04.307Z,-0.93
2023-02-06T06:33:32.763Z,-1.00
2023-02-06T06:36:00.665Z,-1.93
2023-02-06T06:38:28.524Z,-1.49
2023-02-06T06:40:56.410Z,-1.74
2023-02-06T06:43:24.130Z,-2.23
2023-02-06T06:45:51.900Z,-1.91
2023-02-06T06:48:19.937Z,-2.10
2023-02-06T06:50:50.376Z,-2.48
2023-02-06T06:53:18.522Z,-2.00
2023-02-06T06:55:46.455Z,-1.46
2023-02-06T06:58:14.642Z,-2.01
2023-02-06T07:00:42.260Z,-1.84
2023-02-06T07:03:11.803Z,-1.50
2023-02-06T07:05:39.833Z,-2.30
2023-02-06T07:08:07.580Z,-1.93
2023-02-06T07:10:36.053Z,-1.98
2023-02-06T07:13:03.808Z,-1.86
2023-02-06T07:15:31.679Z,-2.14
2023-02-06T07:17:59.782Z,-1.82
2023-02-06T07:20:27.799Z,-1.62
2023-02-06T07:22:55.390Z,-1.12
2023-02-06T07:25:23.420Z,-0.87
2023-02-06T07:27:51.061Z,-0.53
2023-02-06T07:30:18.978Z,-0.62
2023-02-06T07:32:47.454Z,-0.19
2023-02-06T07:35:15.372Z,-0.17
2023-02-06T07:37:43.036Z,-0.77
2023-02-06T07:40:11.704Z,-0.21
2023-02-06T07:42:40.294Z,-0.03
2023-02-06T07:45:08.987Z,-0.89
2023-02-06T07:47:36.942Z,-1.10
2023-02-06T07:50:06.928Z,-0.53
2023-02-06T07:52:34.931Z,-0.87
2023-02-06T07:55:03.064Z,-0.31
2023-02-06T07:57:30.760Z,-0.92
2023-02-06T07:59:58.438Z,-0.59
2023-02-06T08:02:26.377Z,-0.35
2023-02-06T08:04:54.267Z,-0.54
2023-02-06T08:07:21.901Z,-0.17
2023-02-06T08:09:49.501Z,-0.52
2023-02-06T08:12:17.426Z,-0.18
2023-02-06T08:14:45.891Z,-0.01
2023-02-06T08:17:13.765Z,-0.11
2023-02-06T08:19:42.138Z,0.37
2023-02-06T08:22:09.670Z,0.52
2023-02-06T08:24:37.235Z,0.47
2023-02-06T08:27:07.140Z,0.58
2023-02-06T08:29:42.640Z,-0.26
2023-02-06T08:32:11.365Z,0.88
2023-02-06T08:34:40.468Z,1.33
2023-02-06T08:37:08.293Z,0.35
2023-02-06T08:39:36.384Z,0.28
2023-02-06T08:42:04.134Z,0.84
2023-02-06T08:44:32.208Z,0.80
2023-02-06T08:47:09.728Z,1.12
2023-02-06T08:49:38.476Z,1.13
2023-02-06T08:52:06.355Z,1.71
2023-02-06T08:54:36.341Z,1.53
2023-02-06T08:57:06.705Z,1.83
2023-02-06T08:59:35.705Z,1.98
2023-02-06T09:02:03.388Z,1.26
2023-02-06T09:04:31.928Z,1.06
2023-02-06T09:06:59.810Z,1.03
2023-02-06T09:09:27.539Z,1.04
2023-02-06T09:11:56.298Z,1.96
2023-02-06T09:14:24.196Z,1.71
2023-02-06T09:16:51.959Z,2.06
2023-02-06T09:19:19.552Z,2.40
2023-02-06T09:21:47.510Z,2.62
2023-02-06T09:24:15.104Z,2.74
2023-02-06T09:26:58.591Z,2.88
2023-02-06T09:29:32.068Z,2.00
2023-02-06T09:32:00.745Z,2.52
2023-02-06T09:34:28.916Z,2.71
2023-02-06T09:36:57.885Z,2.79
2023-02-06T09:39:25.935Z,2.06
2023-02-06T09:42:05.515Z,2.18
2023-02-06T09:44:38.968Z,1.69
2023-02-06T09:47:32.215Z,1.69
2023-02-06T09:50:05.569Z,2.18
2023-02-06T09:52:59.876Z,2.51
2023-02-06T09:55:36.599Z,2.05
2023-02-06T09:58:23.306Z,1.85
2023-02-06T10:01:00.500Z,1.74
2023-02-06T10:03:40.324Z,2.25
2023-02-06T10:06:19.797Z,2.10
2023-02-06T10:08:58.137Z,2.62
2023-02-06T10:11:40.581Z,2.03
2023-02-06T10:14:31.918Z,2.11
2023-02-06T10:17:12.171Z,2.25
2023-02-06T10:19:50.970Z,2.30
2023-02-06T10:22:26.977Z,2.44
2023-02-06T10:25:13.543Z,2.60
2023-02-06T10:27:44.592Z,2.71
2023-02-06T10:30:47.147Z,2.58
2023-02-06T10:33:27.991Z,2.35
2023-02-06T10:36:07.700Z,2.84
2023-02-06T10:39:10.283Z,2.68
2023-02-06T10:41:55.146Z,2.58
2023-02-06T10:44:48.486Z,3.24
2023-02-06T10:47:39.306Z,3.37
2023-02-06T10:50:39.489Z,2.75
2023-02-06T10:53:26.562Z,2.71
2023-02-06T10:56:00.848Z,2.91
2023-02-06T10:58:39.942Z,2.85
2023-02-06T11:01:24.657Z,2.91
2023-02-06T11:04:05.526Z,3.26
2023-02-06T11:06:33.495Z,2.87
2023-02-06T11:09:01.691Z,3.00
2023-02-06T11:11:32.213Z,2.69
2023-02-06T11:14:25.303Z,3.01
2023-02-06T11:16:53.665Z,3.08
2023-02-06T11:19:27.342Z,3.16
2023-02-06T11:22:07.406Z,3.00
2023-02-06T11:24:36.425Z,2.62
2023-02-06T11:27:14.832Z,2.86
2023-02-06T11:29:51.647Z,2.73
2023-02-06T11:32:41.473Z,3.17
2023-02-06T11:35:33.429Z,3.10
2023-02-06T11:38:29.548Z,2.19
2023-02-06T11:41:18.849Z,2.48
2023-02-06T11:43:51.772Z,2.74
2023-02-06T11:46:26.898Z,3.35
2023-02-06T11:48:54.740Z,2.32
2023-02-06T11:51:44.247Z,2.62
2023-02-06T11:54:29.812Z,2.59
2023-02-06T11:57:03.168Z,2.72
2023-02-06T11:59:34.647Z,2.90
2023-02-06T12:02:06.123Z,2.68
2023-02-06T12:04:38.239Z,2.50
2023-02-06T12:07:08.808Z,2.53
2023-02-06T12:09:36.961Z,2.16
2023-02-06T12:12:22.874Z,1.91
2023-02-06T12:15:55.441Z,2.15
2023-02-06T12:18:27.206Z,2.41
2023-02-06T12:20:59.445Z,1.99
2023-02-06T12:23:44.853Z,2.13
2023-02-06T12:26:20.933Z,2.08
2023-02-06T12:29:03.177Z,2.21
2023-02-06T12:31:32.145Z,1.88
2023-02-06T12:34:19.830Z,1.95
2023-02-06T12:36:58.843Z,1.55
2023-02-06T12:39:33.073Z,1.61
2023-02-06T12:42:18.560Z,1.90
2023-02-06T12:44:46.040Z,1.24
2023-02-06T12:47:24.766Z,1.34
2023-02-06T12:50:00.288Z,1.36
2023-02-06T12:52:59.334Z,1.67
2023-02-06T12:55:35.741Z,1.93
2023-02-06T12:58:05.225Z,1.95
2023-02-06T13:00:49.609Z,1.83
2023-02-06T13:03:31.138Z,1.49
2023-02-06T13:06:02.561Z,1.79
2023-02-06T13:08:36.482Z,1.50
2023-02-06T13:11:08.157Z,1.54
2023-02-06T13:13:38.902Z,1.40
2023-02-06T13:16:07.949Z,1.61
2023-02-06T13:18:42.031Z,1.86
2023-02-06T13:21:28.742Z,1.29
2023-02-06T13:24:02.714Z,1.53
2023-02-06T13:26:56.544Z,1.66
2023-02-06T13:29:26.403Z,1.61
2023-02-06T13:32:12.507Z,1.65
2023-02-06T13:34:43.381Z,1.96
2023-02-06T13:37:25.956Z,2.17
2023-02-06T13:40:21.031Z,1.55
2023-02-06T13:43:03.560Z,1.69
2023-02-06T13:45:31.421Z,1.49
2023-02-06T13:48:17.679Z,1.44
2023-02-06T13:51:05.225Z,1.65
2023-02-06T13:53:43.749Z,1.59
2023-02-06T13:56:31.864Z,1.48
2023-02-06T13:59:06.452Z,1.52
2023-02-06T14:01:34.635Z,1.60
2023-02-06T14:04:09.125Z,1.42
2023-02-06T14:07:13.422Z,1.33
2023-02-06T14:09:56.498Z,1.96
2023-02-06T14:12:38.870Z,1.60
2023-02-06T14:15:28.726Z,1.27
2023-02-06T14:18:35.120Z,1.00
2023-02-06T14:21:12.188Z,1.20
2023-02-06T14:24:17.983Z,1.38
2023-02-06T14:26:53.122Z,0.67
2023-02-06T14:29:49.462Z,0.81
2023-02-06T14:32:26.185Z,0.77
2023-02-06T14:34:56.501Z,0.78
2023-02-06T14:37:57.193Z,0.68
2023-02-06T14:40:28.450Z,0.61
2023-02-06T14:43:04.336Z,0.87
2023-02-06T14:45:41.650Z,0.77
2023-02-06T14:48:49.582Z,0.88
2023-02-06T14:51:42.560Z,1.00
2023-02-06T14:54:32.793Z,1.10
2023-02-06T14:57:05.775Z,1.01
2023-02-06T14:59:34.764Z,0.63
2023-02-06T15:02:13.775Z,0.74
2023-02-06T15:04:47.315Z,0.72
2023-02-06T15:07:43.963Z,0.98
2023-02-06T15:10:15.396Z,0.65
2023-02-06T15:12:51.470Z,0.36
2023-02-06T15:15:31.761Z,0.42
2023-02-06T15:17:59.308Z,0.47
2023-02-06T15:20:35.413Z,0.12
2023-02-06T15:23:27.803Z,-0.01
2023-02-06T15:26:29.746Z,0.39
2023-02-06T15:28:59.700Z,-0.11
2023-02-06T15:31:29.280Z,0.36
2023-02-06T15:33:59.338Z,0.11
2023-02-06T15:36:38.751Z,0.40
2023-02-06T15:39:08.060Z,0.17
2023-02-06T15:41:37.201Z,0.18
2023-02-06T15:44:12.374Z,-0.25
2023-02-06T15:46:41.037Z,0.26
2023-02-06T15:49:33.057Z,-0.15
2023-02-06T15:52:02.028Z,-0.22
2023-02-06T15:54:30.030Z,0.07
2023-02-06T15:57:22.341Z,-0.02
2023-02-06T15:59:54.481Z,-0.37
2023-02-06T16:02:34.956Z,0.05
2023-02-06T16:05:04.598Z,0.04
2023-02-06T16:07:36.002Z,0.20
2023-02-06T16:10:28.742Z,0.03
2023-02-06T16:13:00.145Z,0.28
2023-02-06T16:15:30.280Z,0.03
2023-02-06T16:18:00.080Z,-0.41
2023-02-06T16:20:42.246Z,-0.34
2023-02-06T16:23:24.079Z,-0.64
2023-02-06T16:26:04.327Z,-0.39
2023-02-06T16:28:32.039Z,-0.12
2023-02-06T16:31:04.526Z,-0.18
2023-02-06T16:33:39.959Z,-0.15
2023-02-06T16:36:11.798Z,-0.64
2023-02-06T16:38:39.540Z,-0.41
2023-02-06T16:41:25.216Z,-0.66
2023-02-06T16:43:54.470Z,-0.56
2023-02-06T16:46:22.306Z,-0.91
2023-02-06T16:48:50.158Z,-0.98
2023-02-06T16:51:24.157Z,-1.08
2023-02-06T16:53:52.831Z,-0.63
2023-02-06T16:56:21.950Z,-0.52
2023-02-06T16:58:50.060Z,-0.59
2023-02-06T17:01:25.244Z,-1.33
2023-02-06T17:03:54.193Z,-1.06
2023-02-06T17:06:24.894Z,-0.65
2023-02-06T17:08:57.189Z,-0.29
2023-02-06T17:11:25.124Z,-1.07
2023-02-06T17:13:53.085Z,-1.18
2023-02-06T17:16:22.861Z,-1.32
2023-02-06T17:18:51.998Z,-1.04
2023-02-06T17:21:23.599Z,-0.96
2023-02-06T17:23:51.680Z,-0.67
2023-02-06T17:26:22.201Z,-0.68
2023-02-06T17:28:52.512Z,-0.58
2023-02-06T17:31:20.419Z,-0.96
2023-02-06T17:33:48.194Z,-0.42
2023-02-06T17:36:29.258Z,-1.69
2023-02-06T17:38:59.006Z,-1.05
2023-02-06T17:41:27.726Z,-1.25
2023-02-06T17:43:55.497Z,-1.12
2023-02-06T17:46:23.655Z,-1.39
2023-02-06T17:48:51.603Z,-1.17
2023-02-06T17:51:19.281Z,-0.80
2023-02-06T17:53:47.375Z,-1.02
2023-02-06T17:56:15.315Z,-0.90
2023-02-06T17:58:43.466Z,-1.44
2023-02-06T18:01:16.992Z,-0.71
2023-02-06T18:03:47.869Z,-0.85
2023-02-06T18:06:16.839Z,-0.72
2023-02-06T18:08:45.254Z,-1.14
2023-02-06T18:11:21.560Z,-0.69
2023-02-06T18:13:50.215Z,-1.45
2023-02-06T18:16:22.281Z,-1.20
2023-02-06T18:18:50.571Z,-1.71
2023-02-06T18:21:20.266Z,-1.02
2023-02-06T18:23:48.945Z,-1.39
2023-02-06T18:26:17.751Z,-1.44
2023-02-06T18:28:46.057Z,-1.10
2023-02-06T18:31:29.321Z,-0.92
2023-02-06T18:33:57.811Z,-1.12
2023-02-06T18:36:26.524Z,-1.02
2023-02-06T18:38:54.536Z,-1.48
2023-02-06T18:41:41.581Z,-1.87
2023-02-06T18:44:10.730Z,-1.71
2023-02-06T18:46:39.511Z,-1.14
2023-02-06T18:49:08.984Z,-1.15
2023-02-06T18:51:37.046Z,-1.42
2023-02-06T18:54:07.755Z,-1.72
2023-02-06T18:56:38.974Z,-1.33
2023-02-06T18:59:07.264Z,-1.27
2023-02-06T19:01:35.658Z,-1.18
2023-02-06T19:04:04.069Z,-1.96
2023-02-06T19:06:35.567Z,-1.81
2023-02-06T19:09:07.156Z,-1.28
2023-02-06T19:11:36.643Z,-1.45
2023-02-06T19:14:07.216Z,-1.34
2023-02-06T19:16:38.491Z,-1.35
2023-02-06T19:19:07.756Z,-1.40
2023-02-06T19:21:35.734Z,-1.36
2023-02-06T19:24:05.821Z,-1.44
2023-02-06T19:26:34.127Z,-2.00
2023-02-06T19:29:02.333Z,-2.05
2023-02-06T19:31:31.991Z,-2.20
2023-02-06T19:34:01.828Z,-1.81
2023-02-06T19:36:31.499Z,-1.86
2023-02-06T19:39:01.262Z,-2.48
2023-02-06T19:41:31.625Z,-2.21
2023-02-06T19:44:04.527Z,-2.02
2023-02-06T19:46:33.663Z,-2.45
2023-02-06T19:49:01.597Z,-2.55
2023-02-06T19:51:33.016Z,-2.32
2023-02-06T19:54:01.521Z,-1.82
2023-02-06T19:56:34.666Z,-2.33
2023-02-06T19:59:06.428Z,-2.61
2023-02-06T20:01:35.885Z,-2.40
2023-02-06T20:04:04.252Z,-2.28
2023-02-06T20:06:35.073Z,-2.06
2023-02-06T20:09:04.309Z,-1.90
2023-02-06T20:11:33.706Z,-2.20
2023-02-06T20:14:01.795Z,-2.16
2023-02-06T20:16:32.367Z,-2.49
2023-02-06T20:19:13.252Z,-2.47
2023-02-06T20:21:44.269Z,-2.56
2023-02-06T20:24:18.652Z,-3.00
2023-02-06T20:26:47.162Z,-2.79
2023-02-06T20:29:23.269Z,-2.96
2023-02-06T20:31:52.098Z,-2.42
2023-02-06T20:34:21.811Z,-2.57
2023-02-06T20:36:50.844Z,-2.37
2023-02-06T20:39:19.117Z,-2.00
2023-02-06T20:41:49.597Z,-2.56
2023-02-06T20:44:19.354Z,-2.56
2023-02-06T20:46:48.221Z,-2.76
2023-02-06T20:49:22.878Z,-2.44
2023-02-06T20:51:51.778Z,-2.36
2023-02-06T20:54:20.794Z,-2.24
2023-02-06T20:56:48.986Z,-3.20
2023-02-06T20:59:19.863Z,-2.50
2023-02-06T21:01:48.228Z,-2.79
2023-02-06T21:04:16.952Z,-3.26
2023-02-06T21:06:47.965Z,-2.74
2023-02-06T21:09:17.053Z,-2.95
2023-02-06T21:11:47.699Z,-2.91
2023-02-06T21:14:16.909Z,-2.68
2023-02-06T21:16:45.082Z,-2.60
2023-02-06T21:19:14.982Z,-2.09
2023-02-06T21:21:45.880Z,-2.26
2023-02-06T21:24:15.892Z,-2.68
2023-02-06T21:26:44.013Z,-2.74
2023-02-06T21:29:13.892Z,-2.41
2023-02-06T21:31:42.475Z,-2.56
2023-02-06T21:34:13.622Z,-2.73
2023-02-06T21:36:41.841Z,-2.75
2023-02-06T21:39:11.405Z,-2.56
2023-02-06T21:41:39.053Z,-2.67
2023-02-06T21:44:06.632Z,-2.96
2023-02-06T21:46:34.797Z,-3.00
2023-02-06T21:49:02.551Z,-3.22
2023-02-06T21:51:31.496Z,-3.44
2023-02-06T21:53:59.540Z,-2.84
2023-02-06T21:56:28.613Z,-2.59
2023-02-06T21:58:56.563Z,-3.07
2023-02-06T22:01:30.216Z,-2.82
2023-02-06T22:03:58.298Z,-2.89
2023-02-06T22:06:26.987Z,-2.57
2023-02-06T22:08:56.982Z,-2.68
2023-02-06T22:11:27.616Z,-2.76
2023-02-06T22:14:06.771Z,-3.05
2023-02-06T22:16:35.199Z,-3.00
2023-02-06T22:19:04.266Z,-3.13
2023-02-06T22:21:32.978Z,-3.29
2023-02-06T22:24:06.127Z,-3.14
2023-02-06T22:26:38.578Z,-3.22
2023-02-06T22:29:08.474Z,-3.25
2023-02-06T22:31:36.975Z,-2.85
2023-02-06T22:34:04.619Z,-3.53
2023-02-06T22:36:33.502Z,-3.06
2023-02-06T22:39:06.479Z,-3.84
2023-02-06T22:41:37.887Z,-3.06
2023-02-06T22:44:05.678Z,-2.90
2023-02-06T22:46:38.650Z,-2.72
2023-02-06T22:49:08.799Z,-3.11
2023-02-06T22:51:38.220Z,-3.08
2023-02-06T22:54:09.435Z,-2.81
2023-02-06T22:56:39.057Z,-3.00
2023-02-06T22:59:17.356Z,-3.37
2023-02-06T23:01:54.176Z,-2.85
2023-02-06T23:04:30.953Z,-2.88
2023-02-06T23:06:58.543Z,-3.20
2023-02-06T23:09:29.961Z,-2.50
2023-02-06T23:11:58.496Z,-2.69
2023-02-06T23:14:28.900Z,-2.44
2023-02-06T23:16:57.001Z,-2.22
2023-02-06T23:19:24.884Z,-2.43
2023-02-06T23:21:53.638Z,-2.42
2023-02-06T23:24:21.576Z,-2.67
2023-02-06T23:26:50.966Z,-2.35
2023-02-06T23:29:20.894Z,-2.13
2023-02-06T23:31:49.127Z,-2.72
2023-02-06T23:34:18.883Z,-2.67
2023-02-06T23:36:47.432Z,-2.43
2023-02-06T23:39:15.851Z,-3.00
2023-02-06T23:41:43.508Z,-2.44
2023-02-06T23:44:11.930Z,-2.26
2023-02-06T23:46:40.502Z,-2.39
2023-02-06T23:49:08.783Z,-2.00
2023-02-06T23:51:38.137Z,-2.20
2023-02-06T23:54:07.663Z,-2.37
2023-02-06T23:56:36.034Z,-2.21
2023-02-06T23:59:05.430Z,-2.76
